createdAt,value
2022-11-15T00:02:14.946Z,83.46
2022-11-15T00:05:36.404Z,83.42
2022-11-15T00:09:01.296Z,83.42
2022-11-15T00:12:21.606Z,83.38
2022-11-15T00:15:42.072Z,83.32
2022-11-15T00:19:02.835Z,83.27
2022-11-15T00:22:23.062Z,83.22
2022-11-15T00:25:43.156Z,83.13
2022-11-15T00:29:03.455Z,83.02
2022-11-15T00:32:23.822Z,82.92
2022-11-15T00:35:43.877Z,82.85
2022-11-15T00:39:06.080Z,82.81
2022-11-15T00:42:26.540Z,82.72
2022-11-15T00:45:46.643Z,82.63
2022-11-15T00:49:06.608Z,82.57
2022-11-15T00:52:27.156Z,82.51
2022-11-15T00:55:47.385Z,82.44
2022-11-15T00:59:07.963Z,82.40
2022-11-15T01:02:28.561Z,82.35
2022-11-15T01:05:48.873Z,82.31
2022-11-15T01:09:09.168Z,82.28
2022-11-15T01:12:29.653Z,82.25
2022-11-15T01:15:50.219Z,82.23
2022-11-15T01:19:10.420Z,82.19
2022-11-15T01:22:31.081Z,82.16
2022-11-15T01:25:51.855Z,82.17
2022-11-15T01:29:11.872Z,82.19
2022-11-15T01:32:32.340Z,82.21
2022-11-15T01:35:52.586Z,82.21
2022-11-15T01:39:12.649Z,82.24
2022-11-15T01:42:33.079Z,82.27
2022-11-15T01:46:02.934Z,82.31
2022-11-15T01:49:25.052Z,82.30
2022-11-15T01:52:45.560Z,82.21
2022-11-15T01:56:10.059Z,82.12
2022-11-15T01:59:30.739Z,82.04
2022-11-15T02:02:51.247Z,81.98
2022-11-15T02:06:11.853Z,81.86
2022-11-15T02:09:31.932Z,81.73
2022-11-15T02:12:53.821Z,81.68
2022-11-15T02:16:28.185Z,81.69
2022-11-15T02:20:17.452Z,81.62
2022-11-15T02:23:49.814Z,81.52
2022-11-15T02:28:03.052Z,81.45
2022-11-15T02:31:26.151Z,81.41
2022-11-15T02:35:03.370Z,81.43
2022-11-15T02:38:45.168Z,81.29
2022-11-15T02:42:33.879Z,81.15
2022-11-15T02:46:02.776Z,80.98
2022-11-15T02:49:26.546Z,80.77
2022-11-15T02:52:49.675Z,80.59
2022-11-15T02:56:11.556Z,80.49
2022-11-15T02:59:34.279Z,80.43
2022-11-15T03:03:12.364Z,80.39
2022-11-15T03:06:39.420Z,80.45
2022-11-15T03:10:27.584Z,80.52
2022-11-15T03:13:47.696Z,80.51
2022-11-15T03:17:30.898Z,80.55
2022-11-15T03:20:51.478Z,80.55
2022-11-15T03:24:14.659Z,80.56
2022-11-15T03:27:45.375Z,80.57
2022-11-15T03:31:26.392Z,80.55
2022-11-15T03:34:52.450Z,80.64
2022-11-15T03:38:30.899Z,80.64
2022-11-15T03:42:33.069Z,80.69
2022-11-15T03:45:59.923Z,80.64
2022-11-15T03:49:34.554Z,80.69
2022-11-15T03:52:56.463Z,80.72
2022-11-15T03:56:16.935Z,80.77
2022-11-15T03:59:36.991Z,80.83
2022-11-15T04:02:57.476Z,80.87
2022-11-15T04:06:17.570Z,80.87
2022-11-15T04:09:58.202Z,80.87
2022-11-15T04:13:18.698Z,80.85
2022-11-15T04:16:43.752Z,80.86
2022-11-15T04:20:24.526Z,80.85
2022-11-15T04:24:03.626Z,80.84
2022-11-15T04:27:24.201Z,80.83
2022-11-15T04:30:44.939Z,80.79
2022-11-15T04:34:05.322Z,80.75
2022-11-15T04:37:25.569Z,80.69
2022-11-15T04:40:47.048Z,80.60
2022-11-15T04:44:07.545Z,80.58
2022-11-15T04:47:28.518Z,80.54
2022-11-15T04:50:49.440Z,80.49
2022-11-15T04:54:09.848Z,80.48
2022-11-15T04:57:30.272Z,80.47
2022-11-15T05:00:50.737Z,80.45
2022-11-15T05:04:20.564Z,80.46
2022-11-15T05:07:40.706Z,80.50
2022-11-15T05:11:01.319Z,80.49
2022-11-15T05:14:21.771Z,80.54
2022-11-15T05:17:42.338Z,80.55
2022-11-15T05:21:06.682Z,80.50
2022-11-15T05:24:26.982Z,80.46
2022-11-15T05:27:47.191Z,80.40
2022-11-15T05:31:09.935Z,80.40
2022-11-15T05:34:30.014Z,80.31
2022-11-15T05:37:50.362Z,80.32
2022-11-15T05:41:12.136Z,80.32
2022-11-15T05:44:33.518Z,80.19
2022-11-15T05:47:55.588Z,80.07
2022-11-15T05:51:17.650Z,79.95
2022-11-15T05:54:38.623Z,79.79
2022-11-15T05:57:59.014Z,79.67
2022-11-15T06:01:19.519Z,79.61
2022-11-15T06:04:39.934Z,79.55
2022-11-15T06:08:00.858Z,79.47
2022-11-15T06:11:21.339Z,79.32
2022-11-15T06:14:41.762Z,79.28
2022-11-15T06:18:01.881Z,79.19
2022-11-15T06:21:22.768Z,79.17
2022-11-15T06:24:44.313Z,79.07
2022-11-15T06:28:04.506Z,79.01
2022-11-15T06:31:24.807Z,79.02
2022-11-15T06:34:45.096Z,79.04
2022-11-15T06:38:08.637Z,79.02
2022-11-15T06:41:29.243Z,79.11
2022-11-15T06:44:49.503Z,79.18
2022-11-15T06:48:09.703Z,79.27
2022-11-15T06:51:29.625Z,79.39
2022-11-15T06:54:50.106Z,79.45
2022-11-15T06:58:10.365Z,79.55
2022-11-15T07:01:31.391Z,79.60
2022-11-15T07:04:51.750Z,79.64
2022-11-15T07:08:11.931Z,79.68
2022-11-15T07:11:33.772Z,79.74
2022-11-15T07:14:53.907Z,79.83
2022-11-15T07:18:14.018Z,79.96
2022-11-15T07:21:34.135Z,80.17
2022-11-15T07:24:54.377Z,80.34
2022-11-15T07:28:14.736Z,80.51
2022-11-15T07:31:35.261Z,80.68
2022-11-15T07:34:55.224Z,80.81
2022-11-15T07:38:19.853Z,80.92
2022-11-15T07:41:40.199Z,81.00
2022-11-15T07:45:00.321Z,81.13
2022-11-15T07:48:20.553Z,81.37
2022-11-15T07:51:40.843Z,81.63
2022-11-15T07:55:01.446Z,81.88
2022-11-15T07:58:22.127Z,82.16
2022-11-15T08:01:42.759Z,82.44
2022-11-15T08:05:03.510Z,82.63
2022-11-15T08:08:23.827Z,82.87
2022-11-15T08:11:44.433Z,83.12
2022-11-15T08:15:05.503Z,83.26
2022-11-15T08:18:25.881Z,83.41
2022-11-15T08:21:46.570Z,83.56
2022-11-15T08:25:07.855Z,83.73
2022-11-15T08:28:29.357Z,83.88
2022-11-15T08:31:49.596Z,84.01
2022-11-15T08:35:13.159Z,84.07
2022-11-15T08:38:33.932Z,84.14
2022-11-15T08:41:54.337Z,84.13
2022-11-15T08:45:15.612Z,84.12
2022-11-15T08:48:35.888Z,84.10
2022-11-15T08:51:56.623Z,83.86
2022-11-15T08:55:17.715Z,83.67
2022-11-15T08:58:38.273Z,83.59
2022-11-15T09:01:58.339Z,83.49
2022-11-15T09:05:19.181Z,83.40
2022-11-15T09:08:48.101Z,83.27
2022-11-15T09:12:09.327Z,83.11
2022-11-15T09:15:30.921Z,82.98
2022-11-15T09:18:51.615Z,82.74
2022-11-15T09:22:11.973Z,82.48
2022-11-15T09:25:33.349Z,82.21
2022-11-15T09:28:53.732Z,81.81
2022-11-15T09:32:14.156Z,81.40
2022-11-15T09:35:34.105Z,80.94
2022-11-15T09:38:55.087Z,80.77
2022-11-15T09:42:32.790Z,80.35
2022-11-15T09:46:11.019Z,79.97
2022-11-15T09:49:42.292Z,79.74
2022-11-15T09:52:51.464Z,79.40
2022-11-15T09:56:11.856Z,79.16
2022-11-15T09:59:32.132Z,78.99
2022-11-15T10:03:03.332Z,78.72
2022-11-15T10:06:06.862Z,78.41
2022-11-15T10:09:21.182Z,78.20
2022-11-15T10:12:25.960Z,77.88
2022-11-15T10:15:27.926Z,77.72
2022-11-15T10:18:44.734Z,77.61
2022-11-15T10:22:05.339Z,77.43
2022-11-15T10:25:10.029Z,77.28
2022-11-15T10:28:23.946Z,77.17
2022-11-15T10:31:28.680Z,76.98
2022-11-15T10:34:36.234Z,76.86
2022-11-15T10:37:38.075Z,76.66
2022-11-15T10:40:41.080Z,76.66
2022-11-15T10:43:43.588Z,76.49
2022-11-15T10:46:57.077Z,76.30
2022-11-15T10:50:31.967Z,76.24
2022-11-15T10:53:44.229Z,75.90
2022-11-15T10:56:51.359Z,75.68
2022-11-15T11:00:00.494Z,75.44
2022-11-15T11:03:09.010Z,75.23
2022-11-15T11:06:15.425Z,75.04
2022-11-15T11:09:35.879Z,74.81
2022-11-15T11:12:37.800Z,74.42
2022-11-15T11:15:41.523Z,74.09
2022-11-15T11:18:55.208Z,73.77
2022-11-15T11:22:11.874Z,73.51
2022-11-15T11:25:32.226Z,73.38
2022-11-15T11:28:42.461Z,73.17
2022-11-15T11:32:07.090Z,72.88
2022-11-15T11:35:20.194Z,72.60
2022-11-15T11:38:27.993Z,72.29
2022-11-15T11:41:41.679Z,72.14
2022-11-15T11:45:16.469Z,72.18
2022-11-15T11:48:43.844Z,72.29
2022-11-15T11:52:00.719Z,72.27
2022-11-15T11:55:14.857Z,72.33
2022-11-15T11:58:39.330Z,72.38
2022-11-15T12:01:45.539Z,72.54
2022-11-15T12:04:53.445Z,72.71
2022-11-15T12:08:04.097Z,72.81
2022-11-15T12:11:14.964Z,72.93
2022-11-15T12:14:26.990Z,73.12
2022-11-15T12:17:32.449Z,73.28
2022-11-15T12:20:39.952Z,73.42
2022-11-15T12:23:50.566Z,73.56
2022-11-15T12:27:03.313Z,73.71
2022-11-15T12:30:14.521Z,73.88
2022-11-15T12:33:37.335Z,74.07
2022-11-15T12:36:43.294Z,74.31
2022-11-15T12:40:04.461Z,74.49
2022-11-15T12:43:39.198Z,74.68
2022-11-15T12:46:41.026Z,74.89
2022-11-15T12:49:44.929Z,75.07
2022-11-15T12:53:27.879Z,75.32
2022-11-15T12:56:29.705Z,75.57
2022-11-15T13:00:04.409Z,75.62
2022-11-15T13:03:23.833Z,75.91
2022-11-15T13:06:46.244Z,76.14
2022-11-15T13:09:50.844Z,76.37
2022-11-15T13:12:56.164Z,76.57
2022-11-15T13:16:02.107Z,76.86
2022-11-15T13:19:05.105Z,76.95
2022-11-15T13:22:28.759Z,77.01
2022-11-15T13:25:45.703Z,77.18
2022-11-15T13:28:52.208Z,77.17
2022-11-15T13:31:55.952Z,77.22
2022-11-15T13:35:00.782Z,77.39
2022-11-15T13:38:05.161Z,77.50
2022-11-15T13:41:22.629Z,77.61
2022-11-15T13:44:28.206Z,77.74
2022-11-15T13:47:31.954Z,77.98
2022-11-15T13:50:37.470Z,78.23
2022-11-15T13:53:41.794Z,78.49
2022-11-15T13:56:58.381Z,78.69
2022-11-15T14:00:41.060Z,78.88
2022-11-15T14:03:50.445Z,78.94
2022-11-15T14:06:55.765Z,79.11
2022-11-15T14:09:57.695Z,79.20
2022-11-15T14:13:00.488Z,79.26
2022-11-15T14:16:19.703Z,79.27
2022-11-15T14:19:21.390Z,79.29
2022-11-15T14:22:28.607Z,79.37
2022-11-15T14:25:35.818Z,79.52
2022-11-15T14:28:39.598Z,79.66
2022-11-15T14:31:43.862Z,79.71
2022-11-15T14:34:46.471Z,79.78
2022-11-15T14:37:48.483Z,79.87
2022-11-15T14:40:50.803Z,79.93
2022-11-15T14:43:53.826Z,80.01
2022-11-15T14:46:55.505Z,80.08
2022-11-15T14:49:57.206Z,80.13
2022-11-15T14:52:59.013Z,80.13
2022-11-15T14:56:00.810Z,80.10
2022-11-15T14:59:02.573Z,80.08
2022-11-15T15:02:20.338Z,80.12
2022-11-15T15:05:31.020Z,80.04
2022-11-15T15:08:32.966Z,79.98
2022-11-15T15:11:34.763Z,79.78
2022-11-15T15:14:36.490Z,79.62
2022-11-15T15:17:38.176Z,79.54
2022-11-15T15:20:41.860Z,79.61
2022-11-15T15:23:43.575Z,79.79
2022-11-15T15:26:45.343Z,79.88
2022-11-15T15:29:47.080Z,79.56
2022-11-15T15:32:49.270Z,79.33
2022-11-15T15:35:50.931Z,79.25
2022-11-15T15:38:52.870Z,79.22
2022-11-15T15:41:57.412Z,79.12
2022-11-15T15:44:59.307Z,79.07
2022-11-15T15:48:01.025Z,79.11
2022-11-15T15:51:05.778Z,79.33
2022-11-15T15:54:12.979Z,79.22
2022-11-15T15:57:14.949Z,79.07
2022-11-15T16:00:17.596Z,78.98
2022-11-15T16:03:19.327Z,78.90
2022-11-15T16:06:44.599Z,78.78
2022-11-15T16:10:01.688Z,78.91
2022-11-15T16:13:03.668Z,79.08
2022-11-15T16:16:09.624Z,79.10
2022-11-15T16:19:12.457Z,78.91
2022-11-15T16:22:14.414Z,79.08
2022-11-15T16:25:16.126Z,79.38
2022-11-15T16:28:25.139Z,79.62
2022-11-15T16:31:26.845Z,79.77
2022-11-15T16:34:31.597Z,79.88
2022-11-15T16:37:34.660Z,80.12
2022-11-15T16:40:36.406Z,80.38
2022-11-15T16:43:38.048Z,80.66
2022-11-15T16:46:42.767Z,80.92
2022-11-15T16:49:48.169Z,81.14
2022-11-15T16:52:55.584Z,81.36
2022-11-15T16:55:57.780Z,81.58
2022-11-15T16:59:00.038Z,81.77
2022-11-15T17:02:02.042Z,81.75
2022-11-15T17:05:09.841Z,81.86
2022-11-15T17:08:13.074Z,82.02
2022-11-15T17:11:18.813Z,82.12
2022-11-15T17:14:20.797Z,82.20
2022-11-15T17:17:22.933Z,82.26
2022-11-15T17:20:25.487Z,82.33
2022-11-15T17:23:27.312Z,82.42
2022-11-15T17:26:34.031Z,82.47
2022-11-15T17:29:38.161Z,82.51
2022-11-15T17:32:43.592Z,82.57
2022-11-15T17:35:45.845Z,82.61
2022-11-15T17:38:55.248Z,82.68
2022-11-15T17:42:00.742Z,82.74
2022-11-15T17:45:06.723Z,82.79
2022-11-15T17:48:11.330Z,82.83
2022-11-15T17:51:16.398Z,82.79
2022-11-15T17:54:18.782Z,82.81
2022-11-15T17:57:20.416Z,82.84
2022-11-15T18:00:22.182Z,82.77
2022-11-15T18:03:23.846Z,82.69
2022-11-15T18:06:26.936Z,82.61
2022-11-15T18:09:28.962Z,82.57
2022-11-15T18:12:30.632Z,82.54
2022-11-15T18:15:32.345Z,82.53
2022-11-15T18:18:35.292Z,82.57
2022-11-15T18:21:55.371Z,82.58
2022-11-15T18:24:57.040Z,82.61
2022-11-15T18:27:59.068Z,82.61
2022-11-15T18:31:02.498Z,82.61
2022-11-15T18:34:04.329Z,82.60
2022-11-15T18:37:06.444Z,82.58
2022-11-15T18:40:09.061Z,82.60
2022-11-15T18:43:10.721Z,82.65
2022-11-15T18:46:15.926Z,82.69
2022-11-15T18:49:19.639Z,82.71
2022-11-15T18:52:21.941Z,82.73
2022-11-15T18:55:23.517Z,82.77
2022-11-15T18:58:25.182Z,82.75
2022-11-15T19:01:30.472Z,82.75
2022-11-15T19:04:32.317Z,82.77
2022-11-15T19:07:34.292Z,82.79
2022-11-15T19:10:36.217Z,82.78
2022-11-15T19:13:38.694Z,82.76
2022-11-15T19:16:51.456Z,82.74
2022-11-15T19:19:53.157Z,82.73
2022-11-15T19:22:55.119Z,82.73
2022-11-15T19:25:59.429Z,82.73
2022-11-15T19:29:01.581Z,82.76
2022-11-15T19:32:04.577Z,82.85
2022-11-15T19:35:06.518Z,82.86
2022-11-15T19:38:08.353Z,82.93
2022-11-15T19:41:13.515Z,83.01
2022-11-15T19:44:15.359Z,83.10
2022-11-15T19:47:16.944Z,83.18
2022-11-15T19:50:18.737Z,83.26
2022-11-15T19:53:22.830Z,83.33
2022-11-15T19:56:24.892Z,83.38
2022-11-15T19:59:26.617Z,83.47
2022-11-15T20:02:28.301Z,83.55
2022-11-15T20:05:29.982Z,83.62
2022-11-15T20:08:32.695Z,83.67
2022-11-15T20:11:37.308Z,83.71
2022-11-15T20:14:39.082Z,83.75
2022-11-15T20:17:40.724Z,83.79
2022-11-15T20:20:42.655Z,83.79
2022-11-15T20:23:44.308Z,83.79
2022-11-15T20:26:46.400Z,83.81
2022-11-15T20:29:48.257Z,83.83
2022-11-15T20:32:49.949Z,83.84
2022-11-15T20:35:52.416Z,83.84
2022-11-15T20:38:58.588Z,83.81
2022-11-15T20:42:00.313Z,83.80
2022-11-15T20:45:01.908Z,83.83
2022-11-15T20:48:03.874Z,83.84
2022-11-15T20:51:13.701Z,83.82
2022-11-15T20:54:18.652Z,83.78
2022-11-15T20:57:20.333Z,83.78
2022-11-15T21:00:24.388Z,83.75
2022-11-15T21:03:26.009Z,83.74
2022-11-15T21:06:27.732Z,83.71
2022-11-15T21:09:47.706Z,83.69
2022-11-15T21:12:50.399Z,83.66
2022-11-15T21:15:55.463Z,83.63
2022-11-15T21:18:57.259Z,83.59
2022-11-15T21:21:58.947Z,83.56
2022-11-15T21:25:00.825Z,83.53
2022-11-15T21:28:02.658Z,83.51
2022-11-15T21:31:04.425Z,83.47
2022-11-15T21:34:06.674Z,83.45
2022-11-15T21:37:09.944Z,83.41
2022-11-15T21:40:12.013Z,83.36
2022-11-15T21:43:14.299Z,83.31
2022-11-15T21:46:15.913Z,83.28
2022-11-15T21:49:17.649Z,83.27
2022-11-15T21:52:19.251Z,83.17
2022-11-15T21:55:20.875Z,83.07
2022-11-15T21:58:23.198Z,82.97
2022-11-15T22:01:45.512Z,82.85
2022-11-15T22:04:47.228Z,82.71
2022-11-15T22:07:51.839Z,82.62
2022-11-15T22:10:53.770Z,82.49
2022-11-15T22:13:57.696Z,82.40
2022-11-15T22:17:00.713Z,82.28
2022-11-15T22:20:17.004Z,82.16
2022-11-15T22:23:26.043Z,82.14
2022-11-15T22:26:29.009Z,82.05
2022-11-15T22:29:30.809Z,81.95
2022-11-15T22:32:34.829Z,81.86
2022-11-15T22:35:40.880Z,81.77
2022-11-15T22:38:42.782Z,81.75
2022-11-15T22:41:44.694Z,81.64
2022-11-15T22:44:46.588Z,81.57
2022-11-15T22:47:48.267Z,81.48
2022-11-15T22:50:50.319Z,81.39
2022-11-15T22:53:52.062Z,81.29
2022-11-15T22:56:53.756Z,81.22
2022-11-15T22:59:55.768Z,81.14
2022-11-15T23:02:57.592Z,81.07
2022-11-15T23:06:06.802Z,81.01
2022-11-15T23:09:09.361Z,81.02
2022-11-15T23:12:30.046Z,80.98
2022-11-15T23:15:51.659Z,80.94
2022-11-15T23:18:56.977Z,80.92
2022-11-15T23:22:17.207Z,80.89
2022-11-15T23:25:18.951Z,80.92
2022-11-15T23:28:20.782Z,80.94
2022-11-15T23:31:41.296Z,80.94
2022-11-15T23:34:45.012Z,81.04
2022-11-15T23:37:46.688Z,81.12
2022-11-15T23:40:52.940Z,81.11
2022-11-15T23:43:54.636Z,81.14
2022-11-15T23:46:56.336Z,81.22
2022-11-15T23:49:58.026Z,81.17
2022-11-15T23:52:59.679Z,81.18
2022-11-15T23:56:12.652Z,81.22
2022-11-15T23:59:14.360Z,81.24
